sensor_id;sensor_type;location;lat;lon;timestamp;temperature;humidity
10233;DHT22;5161;48.174;11.756;2023-02-28T00:00:07;0.80;59.00
10233;DHT22;5161;48.174;11.756;2023-02-28T00:02:37;0.80;59.00
10233;DHT22;5161;48.174;11.756;2023-02-28T00:05:03;0.80;59.10
10233;DHT22;5161;48.174;11.756;2023-02-28T00:07:30;0.80;59.00
10233;DHT22;5161;48.174;11.756;2023-02-28T00:09:56;0.80;59.00
10233;DHT22;5161;48.174;11.756;2023-02-28T00:12:21;0.80;59.00
10233;DHT22;5161;48.174;11.756;2023-02-28T00:14:47;0.80;59.00
10233;DHT22;5161;48.174;11.756;2023-02-28T00:17:12;0.80;59.00
10233;DHT22;5161;48.174;11.756;2023-02-28T00:19:38;0.80;59.10
10233;DHT22;5161;48.174;11.756;2023-02-28T00:22:04;0.70;59.00
10233;DHT22;5161;48.174;11.756;2023-02-28T00:24:29;0.70;59.00
10233;DHT22;5161;48.174;11.756;2023-02-28T00:26:55;0.70;59.00
10233;DHT22;5161;48.174;11.756;2023-02-28T00:29:20;0.70;59.10
10233;DHT22;5161;48.174;11.756;2023-02-28T00:31:46;0.70;59.00
10233;DHT22;5161;48.174;11.756;2023-02-28T00:34:11;0.70;59.00
10233;DHT22;5161;48.174;11.756;2023-02-28T00:36:37;0.70;59.00
10233;DHT22;5161;48.174;11.756;2023-02-28T00:39:03;0.60;59.00
10233;DHT22;5161;48.174;11.756;2023-02-28T00:41:29;0.60;59.10
10233;DHT22;5161;48.174;11.756;2023-02-28T00:43:54;0.60;59.00
10233;DHT22;5161;48.174;11.756;2023-02-28T00:46:20;0.70;59.10
10233;DHT22;5161;48.174;11.756;2023-02-28T00:48:45;0.60;59.10
10233;DHT22;5161;48.174;11.756;2023-02-28T00:51:11;0.60;59.00
10233;DHT22;5161;48.174;11.756;2023-02-28T00:53:36;0.60;59.00
10233;DHT22;5161;48.174;11.756;2023-02-28T00:56:02;0.60;59.10
10233;DHT22;5161;48.174;11.756;2023-02-28T00:58:28;0.60;59.10
10233;DHT22;5161;48.174;11.756;2023-02-28T01:00:54;0.50;59.00
10233;DHT22;5161;48.174;11.756;2023-02-28T01:03:20;0.50;59.00
10233;DHT22;5161;48.174;11.756;2023-02-28T01:05:46;0.40;59.10
10233;DHT22;5161;48.174;11.756;2023-02-28T01:08:13;0.50;59.20
10233;DHT22;5161;48.174;11.756;2023-02-28T01:10:39;0.40;59.10
10233;DHT22;5161;48.174;11.756;2023-02-28T01:13:05;0.40;59.10
10233;DHT22;5161;48.174;11.756;2023-02-28T01:15:31;0.40;59.10
10233;DHT22;5161;48.174;11.756;2023-02-28T01:17:58;0.40;59.10
10233;DHT22;5161;48.174;11.756;2023-02-28T01:20:24;0.40;59.20
10233;DHT22;5161;48.174;11.756;2023-02-28T01:22:49;0.40;59.30
10233;DHT22;5161;48.174;11.756;2023-02-28T01:25:15;0.40;59.20
10233;DHT22;5161;48.174;11.756;2023-02-28T01:27:40;0.30;59.10
10233;DHT22;5161;48.174;11.756;2023-02-28T01:30:10;0.30;59.20
10233;DHT22;5161;48.174;11.756;2023-02-28T01:32:36;0.30;59.30
10233;DHT22;5161;48.174;11.756;2023-02-28T01:35:02;0.30;59.20
10233;DHT22;5161;48.174;11.756;2023-02-28T01:37:27;0.30;59.20
10233;DHT22;5161;48.174;11.756;2023-02-28T01:39:53;0.30;59.20
10233;DHT22;5161;48.174;11.756;2023-02-28T01:42:19;0.30;59.30
10233;DHT22;5161;48.174;11.756;2023-02-28T01:44:57;0.30;59.60
10233;DHT22;5161;48.174;11.756;2023-02-28T01:47:27;0.30;57.50
10233;DHT22;5161;48.174;11.756;2023-02-28T01:49:54;0.20;59.50
10233;DHT22;5161;48.174;11.756;2023-02-28T01:52:21;0.20;59.50
10233;DHT22;5161;48.174;11.756;2023-02-28T01:54:58;0.30;59.60
10233;DHT22;5161;48.174;11.756;2023-02-28T01:57:36;0.20;59.30
10233;DHT22;5161;48.174;11.756;2023-02-28T02:00:14;0.20;58.70
10233;DHT22;5161;48.174;11.756;2023-02-28T02:02:46;0.20;58.40
10233;DHT22;5161;48.174;11.756;2023-02-28T02:05:21;0.20;59.20
10233;DHT22;5161;48.174;11.756;2023-02-28T02:07:54;0.20;59.30
10233;DHT22;5161;48.174;11.756;2023-02-28T02:10:42;0.20;58.50
10233;DHT22;5161;48.174;11.756;2023-02-28T02:18:30;0.10;57.60
10233;DHT22;5161;48.174;11.756;2023-02-28T02:27:31;0.10;59.10
10233;DHT22;5161;48.174;11.756;2023-02-28T02:32:22;0.00;58.10
10233;DHT22;5161;48.174;11.756;2023-02-28T02:37:50;0.00;58.60
10233;DHT22;5161;48.174;11.756;2023-02-28T02:40:23;0.00;57.00
10233;DHT22;5161;48.174;11.756;2023-02-28T02:43:08;0.00;58.90
10233;DHT22;5161;48.174;11.756;2023-02-28T02:45:52;0.00;57.80
10233;DHT22;5161;48.174;11.756;2023-02-28T02:48:21;-0.10;57.50
10233;DHT22;5161;48.174;11.756;2023-02-28T02:50:57;-0.10;59.20
10233;DHT22;5161;48.174;11.756;2023-02-28T02:53:32;-0.10;58.00
10233;DHT22;5161;48.174;11.756;2023-02-28T02:56:01;-0.10;57.50
10233;DHT22;5161;48.174;11.756;2023-02-28T02:58:32;-0.10;59.40
10233;DHT22;5161;48.174;11.756;2023-02-28T03:01:01;-0.10;59.00
10233;DHT22;5161;48.174;11.756;2023-02-28T03:03:28;-0.10;59.40
10233;DHT22;5161;48.174;11.756;2023-02-28T03:05:59;-0.10;59.90
10233;DHT22;5161;48.174;11.756;2023-02-28T03:08:26;-0.20;59.60
10233;DHT22;5161;48.174;11.756;2023-02-28T03:10:57;-0.20;59.60
10233;DHT22;5161;48.174;11.756;2023-02-28T03:25:27;-0.20;59.10
10233;DHT22;5161;48.174;11.756;2023-02-28T03:28:02;-0.20;57.60
10233;DHT22;5161;48.174;11.756;2023-02-28T03:30:53;-0.20;58.30
10233;DHT22;5161;48.174;11.756;2023-02-28T03:33:26;-0.20;57.80
10233;DHT22;5161;48.174;11.756;2023-02-28T03:35:59;-0.20;59.20
10233;DHT22;5161;48.174;11.756;2023-02-28T03:38:31;-0.20;58.80
10233;DHT22;5161;48.174;11.756;2023-02-28T03:43:40;-0.10;58.00
10233;DHT22;5161;48.174;11.756;2023-02-28T03:46:10;-0.20;59.00
10233;DHT22;5161;48.174;11.756;2023-02-28T03:48:40;-0.20;59.00
10233;DHT22;5161;48.174;11.756;2023-02-28T03:51:10;-0.20;60.30
10233;DHT22;5161;48.174;11.756;2023-02-28T03:53:44;-0.20;59.20
10233;DHT22;5161;48.174;11.756;2023-02-28T03:56:17;-0.20;59.10
10233;DHT22;5161;48.174;11.756;2023-02-28T03:59:10;-0.20;58.60
10233;DHT22;5161;48.174;11.756;2023-02-28T04:01:44;-0.20;58.10
10233;DHT22;5161;48.174;11.756;2023-02-28T04:04:11;-0.20;59.40
10233;DHT22;5161;48.174;11.756;2023-02-28T04:06:37;-0.20;59.90
10233;DHT22;5161;48.174;11.756;2023-02-28T04:09:05;-0.20;60.30
10233;DHT22;5161;48.174;11.756;2023-02-28T04:11:35;-0.20;60.10
10233;DHT22;5161;48.174;11.756;2023-02-28T04:14:02;-0.20;59.30
10233;DHT22;5161;48.174;11.756;2023-02-28T04:16:29;-0.20;60.20
10233;DHT22;5161;48.174;11.756;2023-02-28T04:18:54;-0.20;60.00
10233;DHT22;5161;48.174;11.756;2023-02-28T04:21:30;-0.20;60.60
10233;DHT22;5161;48.174;11.756;2023-02-28T04:23:56;-0.20;59.10
10233;DHT22;5161;48.174;11.756;2023-02-28T04:26:36;-0.20;60.60
10233;DHT22;5161;48.174;11.756;2023-02-28T04:29:03;-0.20;58.50
10233;DHT22;5161;48.174;11.756;2023-02-28T04:31:29;-0.20;59.50
10233;DHT22;5161;48.174;11.756;2023-02-28T04:33:55;-0.20;60.20
10233;DHT22;5161;48.174;11.756;2023-02-28T04:36:20;-0.20;60.30
10233;DHT22;5161;48.174;11.756;2023-02-28T04:38:48;-0.10;60.50
10233;DHT22;5161;48.174;11.756;2023-02-28T04:41:14;-0.10;60.60
10233;DHT22;5161;48.174;11.756;2023-02-28T04:43:40;-0.10;60.50
10233;DHT22;5161;48.174;11.756;2023-02-28T04:46:06;-0.10;60.80
10233;DHT22;5161;48.174;11.756;2023-02-28T04:48:34;0.00;60.50
10233;DHT22;5161;48.174;11.756;2023-02-28T04:51:05;0.00;59.80
10233;DHT22;5161;48.174;11.756;2023-02-28T04:53:31;0.00;59.30
10233;DHT22;5161;48.174;11.756;2023-02-28T04:55:57;0.00;60.70
10233;DHT22;5161;48.174;11.756;2023-02-28T04:58:23;0.10;60.60
10233;DHT22;5161;48.174;11.756;2023-02-28T05:00:50;0.10;60.70
10233;DHT22;5161;48.174;11.756;2023-02-28T05:03:16;0.20;60.60
10233;DHT22;5161;48.174;11.756;2023-02-28T05:05:41;0.20;61.30
10233;DHT22;5161;48.174;11.756;2023-02-28T05:08:07;0.30;61.50
10233;DHT22;5161;48.174;11.756;2023-02-28T05:10:32;0.30;61.50
10233;DHT22;5161;48.174;11.756;2023-02-28T05:12:58;0.30;61.60
10233;DHT22;5161;48.174;11.756;2023-02-28T05:15:24;0.30;61.50
10233;DHT22;5161;48.174;11.756;2023-02-28T05:17:49;0.30;61.60
10233;DHT22;5161;48.174;11.756;2023-02-28T05:20:15;0.30;61.60
10233;DHT22;5161;48.174;11.756;2023-02-28T05:22:41;0.40;61.90
10233;DHT22;5161;48.174;11.756;2023-02-28T05:25:10;0.40;61.80
10233;DHT22;5161;48.174;11.756;2023-02-28T05:27:37;0.40;60.70
10233;DHT22;5161;48.174;11.756;2023-02-28T05:30:03;0.40;61.70
10233;DHT22;5161;48.174;11.756;2023-02-28T05:32:29;0.40;61.00
10233;DHT22;5161;48.174;11.756;2023-02-28T05:34:55;0.40;61.50
10233;DHT22;5161;48.174;11.756;2023-02-28T05:37:20;0.40;61.70
10233;DHT22;5161;48.174;11.756;2023-02-28T05:39:46;0.50;61.70
10233;DHT22;5161;48.174;11.756;2023-02-28T05:42:11;0.50;61.70
10233;DHT22;5161;48.174;11.756;2023-02-28T05:44:37;0.50;61.70
10233;DHT22;5161;48.174;11.756;2023-02-28T05:47:03;0.50;61.50
10233;DHT22;5161;48.174;11.756;2023-02-28T05:49:29;0.50;61.40
10233;DHT22;5161;48.174;11.756;2023-02-28T05:51:54;0.50;61.30
10233;DHT22;5161;48.174;11.756;2023-02-28T05:54:20;0.50;61.70
10233;DHT22;5161;48.174;11.756;2023-02-28T05:56:45;0.50;61.40
10233;DHT22;5161;48.174;11.756;2023-02-28T05:59:14;0.50;61.30
10233;DHT22;5161;48.174;11.756;2023-02-28T06:01:42;0.50;60.10
10233;DHT22;5161;48.174;11.756;2023-02-28T06:04:10;0.50;60.50
10233;DHT22;5161;48.174;11.756;2023-02-28T06:06:36;0.50;60.50
10233;DHT22;5161;48.174;11.756;2023-02-28T06:09:03;0.40;60.40
10233;DHT22;5161;48.174;11.756;2023-02-28T06:11:29;0.40;59.50
10233;DHT22;5161;48.174;11.756;2023-02-28T06:13:56;0.30;59.80
10233;DHT22;5161;48.174;11.756;2023-02-28T06:16:22;0.30;59.80
10233;DHT22;5161;48.174;11.756;2023-02-28T06:18:48;0.30;59.90
10233;DHT22;5161;48.174;11.756;2023-02-28T06:21:14;0.30;59.90
10233;DHT22;5161;48.174;11.756;2023-02-28T06:23:39;0.30;59.90
10233;DHT22;5161;48.174;11.756;2023-02-28T06:26:05;0.20;59.70
10233;DHT22;5161;48.174;11.756;2023-02-28T06:28:31;0.30;60.00
10233;DHT22;5161;48.174;11.756;2023-02-28T06:30:57;0.30;60.90
10233;DHT22;5161;48.174;11.756;2023-02-28T06:33:22;0.40;62.30
10233;DHT22;5161;48.174;11.756;2023-02-28T06:35:52;0.40;62.40
10233;DHT22;5161;48.174;11.756;2023-02-28T06:38:18;0.40;60.70
10233;DHT22;5161;48.174;11.756;2023-02-28T06:40:44;0.50;62.40
10233;DHT22;5161;48.174;11.756;2023-02-28T06:43:10;0.50;62.70
10233;DHT22;5161;48.174;11.756;2023-02-28T06:45:42;0.60;62.40
10233;DHT22;5161;48.174;11.756;2023-02-28T06:48:08;0.50;61.10
10233;DHT22;5161;48.174;11.756;2023-02-28T06:50:34;0.60;62.20
10233;DHT22;5161;48.174;11.756;2023-02-28T06:53:00;0.60;62.30
10233;DHT22;5161;48.174;11.756;2023-02-28T06:55:25;0.60;62.80
10233;DHT22;5161;48.174;11.756;2023-02-28T06:57:51;0.60;63.10
10233;DHT22;5161;48.174;11.756;2023-02-28T07:00:17;0.60;63.00
10233;DHT22;5161;48.174;11.756;2023-02-28T07:02:42;0.70;62.70
10233;DHT22;5161;48.174;11.756;2023-02-28T07:05:08;0.70;63.00
10233;DHT22;5161;48.174;11.756;2023-02-28T07:07:34;0.70;62.70
10233;DHT22;5161;48.174;11.756;2023-02-28T07:10:02;0.70;63.00
10233;DHT22;5161;48.174;11.756;2023-02-28T07:12:27;0.70;63.00
10233;DHT22;5161;48.174;11.756;2023-02-28T07:14:53;0.70;62.90
10233;DHT22;5161;48.174;11.756;2023-02-28T07:17:21;0.70;62.60
10233;DHT22;5161;48.174;11.756;2023-02-28T07:19:46;0.70;62.40
10233;DHT22;5161;48.174;11.756;2023-02-28T07:22:12;0.70;62.10
10233;DHT22;5161;48.174;11.756;2023-02-28T07:24:38;0.60;61.90
10233;DHT22;5161;48.174;11.756;2023-02-28T07:27:03;0.70;62.10
10233;DHT22;5161;48.174;11.756;2023-02-28T07:29:29;0.70;63.50
10233;DHT22;5161;48.174;11.756;2023-02-28T07:31:55;0.70;62.40
10233;DHT22;5161;48.174;11.756;2023-02-28T07:34:21;0.80;62.30
10233;DHT22;5161;48.174;11.756;2023-02-28T07:36:47;0.70;61.30
10233;DHT22;5161;48.174;11.756;2023-02-28T07:39:13;0.60;61.00
10233;DHT22;5161;48.174;11.756;2023-02-28T07:41:38;0.60;60.40
10233;DHT22;5161;48.174;11.756;2023-02-28T07:44:09;0.50;60.20
10233;DHT22;5161;48.174;11.756;2023-02-28T07:46:35;0.50;60.00
10233;DHT22;5161;48.174;11.756;2023-02-28T07:49:02;0.50;60.50
10233;DHT22;5161;48.174;11.756;2023-02-28T07:51:29;0.60;60.50
10233;DHT22;5161;48.174;11.756;2023-02-28T07:53:55;0.60;60.10
10233;DHT22;5161;48.174;11.756;2023-02-28T07:56:20;0.60;60.70
10233;DHT22;5161;48.174;11.756;2023-02-28T07:58:46;0.60;60.80
10233;DHT22;5161;48.174;11.756;2023-02-28T08:01:12;0.60;60.80
10233;DHT22;5161;48.174;11.756;2023-02-28T08:03:39;0.70;60.60
10233;DHT22;5161;48.174;11.756;2023-02-28T08:06:06;0.60;59.80
10233;DHT22;5161;48.174;11.756;2023-02-28T08:08:32;0.50;59.80
10233;DHT22;5161;48.174;11.756;2023-02-28T08:10:59;0.60;60.50
10233;DHT22;5161;48.174;11.756;2023-02-28T08:13:26;0.50;59.90
10233;DHT22;5161;48.174;11.756;2023-02-28T08:15:53;0.50;60.40
10233;DHT22;5161;48.174;11.756;2023-02-28T08:18:19;0.60;60.90
10233;DHT22;5161;48.174;11.756;2023-02-28T08:20:45;0.70;61.70
10233;DHT22;5161;48.174;11.756;2023-02-28T08:23:11;0.80;62.00
10233;DHT22;5161;48.174;11.756;2023-02-28T08:25:36;0.80;62.00
10233;DHT22;5161;48.174;11.756;2023-02-28T08:28:02;0.90;62.20
10233;DHT22;5161;48.174;11.756;2023-02-28T08:30:27;0.90;61.80
10233;DHT22;5161;48.174;11.756;2023-02-28T08:32:53;0.90;61.70
10233;DHT22;5161;48.174;11.756;2023-02-28T08:35:19;0.90;61.70
10233;DHT22;5161;48.174;11.756;2023-02-28T08:37:47;0.90;61.40
10233;DHT22;5161;48.174;11.756;2023-02-28T08:40:14;0.80;60.00
10233;DHT22;5161;48.174;11.756;2023-02-28T08:42:47;0.80;60.70
10233;DHT22;5161;48.174;11.756;2023-02-28T08:45:13;0.70;59.90
10233;DHT22;5161;48.174;11.756;2023-02-28T08:47:39;0.60;59.80
10233;DHT22;5161;48.174;11.756;2023-02-28T08:50:06;0.70;60.50
10233;DHT22;5161;48.174;11.756;2023-02-28T08:52:32;0.70;60.00
10233;DHT22;5161;48.174;11.756;2023-02-28T08:54:58;0.70;61.00
10233;DHT22;5161;48.174;11.756;2023-02-28T08:57:23;0.90;61.60
10233;DHT22;5161;48.174;11.756;2023-02-28T08:59:51;0.90;61.60
10233;DHT22;5161;48.174;11.756;2023-02-28T09:02:17;0.90;61.60
10233;DHT22;5161;48.174;11.756;2023-02-28T09:04:42;1.00;62.10
10233;DHT22;5161;48.174;11.756;2023-02-28T09:07:10;1.00;61.80
10233;DHT22;5161;48.174;11.756;2023-02-28T09:09:36;1.00;62.30
10233;DHT22;5161;48.174;11.756;2023-02-28T09:12:02;1.10;62.40
10233;DHT22;5161;48.174;11.756;2023-02-28T09:14:27;1.10;62.20
10233;DHT22;5161;48.174;11.756;2023-02-28T09:16:53;1.10;62.50
10233;DHT22;5161;48.174;11.756;2023-02-28T09:19:19;1.10;62.30
10233;DHT22;5161;48.174;11.756;2023-02-28T09:21:45;1.10;62.30
10233;DHT22;5161;48.174;11.756;2023-02-28T09:24:11;1.10;61.90
10233;DHT22;5161;48.174;11.756;2023-02-28T09:26:39;1.10;62.20
10233;DHT22;5161;48.174;11.756;2023-02-28T09:29:05;1.20;62.70
10233;DHT22;5161;48.174;11.756;2023-02-28T09:31:32;1.10;61.50
10233;DHT22;5161;48.174;11.756;2023-02-28T09:33:58;1.10;62.30
10233;DHT22;5161;48.174;11.756;2023-02-28T09:36:27;1.20;62.50
10233;DHT22;5161;48.174;11.756;2023-02-28T09:38:53;1.20;63.00
10233;DHT22;5161;48.174;11.756;2023-02-28T09:41:24;1.30;63.40
10233;DHT22;5161;48.174;11.756;2023-02-28T09:43:55;1.30;60.30
10233;DHT22;5161;48.174;11.756;2023-02-28T09:46:32;1.30;61.20
10233;DHT22;5161;48.174;11.756;2023-02-28T09:49:02;1.30;60.40
10233;DHT22;5161;48.174;11.756;2023-02-28T09:51:50;1.20;61.50
10233;DHT22;5161;48.174;11.756;2023-02-28T09:54:19;1.30;60.40
10233;DHT22;5161;48.174;11.756;2023-02-28T09:56:51;1.40;62.90
10233;DHT22;5161;48.174;11.756;2023-02-28T09:59:29;1.40;61.40
10233;DHT22;5161;48.174;11.756;2023-02-28T10:02:07;1.30;61.20
10233;DHT22;5161;48.174;11.756;2023-02-28T10:04:51;1.40;61.80
10233;DHT22;5161;48.174;11.756;2023-02-28T10:08:04;1.50;61.00
10233;DHT22;5161;48.174;11.756;2023-02-28T10:13:05;1.80;63.20
10233;DHT22;5161;48.174;11.756;2023-02-28T10:15:34;1.80;63.70
10233;DHT22;5161;48.174;11.756;2023-02-28T10:18:04;1.90;64.40
10233;DHT22;5161;48.174;11.756;2023-02-28T10:20:33;2.00;63.60
10233;DHT22;5161;48.174;11.756;2023-02-28T10:25:34;2.10;63.60
10233;DHT22;5161;48.174;11.756;2023-02-28T10:28:15;2.10;63.60
10233;DHT22;5161;48.174;11.756;2023-02-28T10:30:50;2.10;61.70
10233;DHT22;5161;48.174;11.756;2023-02-28T10:33:33;2.10;61.00
10233;DHT22;5161;48.174;11.756;2023-02-28T10:36:00;2.20;61.60
10233;DHT22;5161;48.174;11.756;2023-02-28T10:38:36;2.20;63.80
10233;DHT22;5161;48.174;11.756;2023-02-28T10:41:13;2.30;62.40
10233;DHT22;5161;48.174;11.756;2023-02-28T10:43:41;2.40;63.10
10233;DHT22;5161;48.174;11.756;2023-02-28T10:48:48;2.30;63.20
10233;DHT22;5161;48.174;11.756;2023-02-28T10:51:18;2.40;61.80
10233;DHT22;5161;48.174;11.756;2023-02-28T10:53:52;2.40;62.80
10233;DHT22;5161;48.174;11.756;2023-02-28T10:56:24;2.30;63.10
10233;DHT22;5161;48.174;11.756;2023-02-28T11:03:50;2.40;62.00
10233;DHT22;5161;48.174;11.756;2023-02-28T11:06:20;2.50;62.60
10233;DHT22;5161;48.174;11.756;2023-02-28T11:08:52;2.40;62.50
10233;DHT22;5161;48.174;11.756;2023-02-28T11:11:20;2.50;63.80
10233;DHT22;5161;48.174;11.756;2023-02-28T11:13:47;2.60;62.90
10233;DHT22;5161;48.174;11.756;2023-02-28T11:16:15;2.80;62.90
10233;DHT22;5161;48.174;11.756;2023-02-28T11:18:50;2.80;63.50
10233;DHT22;5161;48.174;11.756;2023-02-28T11:21:19;3.10;63.40
10233;DHT22;5161;48.174;11.756;2023-02-28T11:23:50;3.20;63.70
10233;DHT22;5161;48.174;11.756;2023-02-28T11:26:39;3.50;62.80
10233;DHT22;5161;48.174;11.756;2023-02-28T11:29:27;3.70;63.50
10233;DHT22;5161;48.174;11.756;2023-02-28T11:32:27;3.70;62.90
10233;DHT22;5161;48.174;11.756;2023-02-28T11:35:01;4.00;63.60
10233;DHT22;5161;48.174;11.756;2023-02-28T11:37:29;4.20;63.30
10233;DHT22;5161;48.174;11.756;2023-02-28T11:39:56;4.30;63.10
10233;DHT22;5161;48.174;11.756;2023-02-28T11:42:37;4.40;61.40
10233;DHT22;5161;48.174;11.756;2023-02-28T11:45:21;4.50;61.80
10233;DHT22;5161;48.174;11.756;2023-02-28T11:48:21;4.60;61.70
10233;DHT22;5161;48.174;11.756;2023-02-28T11:51:10;4.60;62.00
10233;DHT22;5161;48.174;11.756;2023-02-28T11:54:04;4.70;59.90
10233;DHT22;5161;48.174;11.756;2023-02-28T11:56:41;4.70;61.00
10233;DHT22;5161;48.174;11.756;2023-02-28T11:59:31;4.80;59.70
10233;DHT22;5161;48.174;11.756;2023-02-28T12:05:19;5.10;60.70
10233;DHT22;5161;48.174;11.756;2023-02-28T12:08:00;5.30;61.10
10233;DHT22;5161;48.174;11.756;2023-02-28T12:10:42;5.60;60.60
10233;DHT22;5161;48.174;11.756;2023-02-28T12:13:18;5.90;60.90
10233;DHT22;5161;48.174;11.756;2023-02-28T12:24:45;6.70;59.50
10233;DHT22;5161;48.174;11.756;2023-02-28T12:27:17;6.90;59.90
10233;DHT22;5161;48.174;11.756;2023-02-28T12:29:54;6.90;58.40
10233;DHT22;5161;48.174;11.756;2023-02-28T12:32:39;6.90;58.70
10233;DHT22;5161;48.174;11.756;2023-02-28T12:35:19;7.20;58.80
10233;DHT22;5161;48.174;11.756;2023-02-28T12:37:52;7.30;58.30
10233;DHT22;5161;48.174;11.756;2023-02-28T12:40:26;7.40;57.90
10233;DHT22;5161;48.174;11.756;2023-02-28T12:42:56;7.50;58.60
10233;DHT22;5161;48.174;11.756;2023-02-28T12:45:26;7.70;59.10
10233;DHT22;5161;48.174;11.756;2023-02-28T12:48:00;7.80;58.40
10233;DHT22;5161;48.174;11.756;2023-02-28T12:50:27;8.00;57.60
10233;DHT22;5161;48.174;11.756;2023-02-28T12:53:06;8.10;58.00
10233;DHT22;5161;48.174;11.756;2023-02-28T12:58:37;8.10;57.40
10233;DHT22;5161;48.174;11.756;2023-02-28T13:09:11;8.10;56.70
10233;DHT22;5161;48.174;11.756;2023-02-28T13:11:49;8.00;55.80
10233;DHT22;5161;48.174;11.756;2023-02-28T13:14:29;8.00;57.10
10233;DHT22;5161;48.174;11.756;2023-02-28T13:19:58;7.70;56.50
10233;DHT22;5161;48.174;11.756;2023-02-28T13:22:44;7.80;55.80
10233;DHT22;5161;48.174;11.756;2023-02-28T13:27:49;8.10;56.50
10233;DHT22;5161;48.174;11.756;2023-02-28T13:33:29;7.80;55.70
10233;DHT22;5161;48.174;11.756;2023-02-28T13:38:50;8.20;56.50
10233;DHT22;5161;48.174;11.756;2023-02-28T13:44:01;8.40;54.70
10233;DHT22;5161;48.174;11.756;2023-02-28T13:46:27;8.00;54.90
10233;DHT22;5161;48.174;11.756;2023-02-28T13:48:53;7.80;55.40
10233;DHT22;5161;48.174;11.756;2023-02-28T13:51:45;7.90;55.70
10233;DHT22;5161;48.174;11.756;2023-02-28T13:54:26;7.90;55.40
10233;DHT22;5161;48.174;11.756;2023-02-28T14:07:52;7.40;55.80
10233;DHT22;5161;48.174;11.756;2023-02-28T14:10:30;7.40;56.20
10233;DHT22;5161;48.174;11.756;2023-02-28T14:13:00;7.40;55.80
10233;DHT22;5161;48.174;11.756;2023-02-28T14:20:55;7.60;55.80
10233;DHT22;5161;48.174;11.756;2023-02-28T14:31:36;7.00;55.10
10233;DHT22;5161;48.174;11.756;2023-02-28T14:36:41;6.50;54.90
10233;DHT22;5161;48.174;11.756;2023-02-28T14:39:24;6.50;55.50
10233;DHT22;5161;48.174;11.756;2023-02-28T14:41:50;6.60;55.80
10233;DHT22;5161;48.174;11.756;2023-02-28T14:44:26;6.80;55.90
10233;DHT22;5161;48.174;11.756;2023-02-28T14:46:57;6.90;55.90
10233;DHT22;5161;48.174;11.756;2023-02-28T14:49:32;7.00;55.70
10233;DHT22;5161;48.174;11.756;2023-02-28T14:52:21;7.00;55.70
10233;DHT22;5161;48.174;11.756;2023-02-28T14:54:59;7.00;55.30
10233;DHT22;5161;48.174;11.756;2023-02-28T14:57:30;7.10;55.80
10233;DHT22;5161;48.174;11.756;2023-02-28T15:00:14;7.10;55.20
10233;DHT22;5161;48.174;11.756;2023-02-28T15:02:40;7.10;55.50
10233;DHT22;5161;48.174;11.756;2023-02-28T15:05:16;7.00;54.70
10233;DHT22;5161;48.174;11.756;2023-02-28T15:07:45;6.80;54.80
10233;DHT22;5161;48.174;11.756;2023-02-28T15:10:18;6.80;55.50
10233;DHT22;5161;48.174;11.756;2023-02-28T15:12:49;6.90;55.40
10233;DHT22;5161;48.174;11.756;2023-02-28T15:15:16;6.80;55.50
10233;DHT22;5161;48.174;11.756;2023-02-28T15:17:46;6.80;55.40
10233;DHT22;5161;48.174;11.756;2023-02-28T15:20:14;6.80;56.00
10233;DHT22;5161;48.174;11.756;2023-02-28T15:22:40;7.00;56.20
10233;DHT22;5161;48.174;11.756;2023-02-28T15:25:09;7.10;56.50
10233;DHT22;5161;48.174;11.756;2023-02-28T15:27:45;7.10;56.10
10233;DHT22;5161;48.174;11.756;2023-02-28T15:30:19;7.10;56.00
10233;DHT22;5161;48.174;11.756;2023-02-28T15:33:06;7.20;56.30
10233;DHT22;5161;48.174;11.756;2023-02-28T15:35:33;7.20;56.10
10233;DHT22;5161;48.174;11.756;2023-02-28T15:38:21;7.10;56.30
10233;DHT22;5161;48.174;11.756;2023-02-28T15:40:55;7.10;56.20
10233;DHT22;5161;48.174;11.756;2023-02-28T15:43:31;7.00;56.00
10233;DHT22;5161;48.174;11.756;2023-02-28T15:46:12;6.90;55.80
10233;DHT22;5161;48.174;11.756;2023-02-28T15:48:52;6.80;56.40
10233;DHT22;5161;48.174;11.756;2023-02-28T15:51:21;6.70;56.00
10233;DHT22;5161;48.174;11.756;2023-02-28T15:54:08;6.60;55.90
10233;DHT22;5161;48.174;11.756;2023-02-28T15:56:45;6.60;56.10
10233;DHT22;5161;48.174;11.756;2023-02-28T15:59:37;6.50;56.10
10233;DHT22;5161;48.174;11.756;2023-02-28T16:04:35;6.30;56.00
10233;DHT22;5161;48.174;11.756;2023-02-28T16:07:05;6.20;56.10
10233;DHT22;5161;48.174;11.756;2023-02-28T16:09:31;6.20;56.10
10233;DHT22;5161;48.174;11.756;2023-02-28T16:12:01;6.10;56.60
10233;DHT22;5161;48.174;11.756;2023-02-28T16:14:29;6.10;56.30
10233;DHT22;5161;48.174;11.756;2023-02-28T16:17:05;6.00;56.30
10233;DHT22;5161;48.174;11.756;2023-02-28T16:19:31;6.00;56.30
10233;DHT22;5161;48.174;11.756;2023-02-28T16:21:57;5.90;56.30
10233;DHT22;5161;48.174;11.756;2023-02-28T16:24:23;5.80;56.30
10233;DHT22;5161;48.174;11.756;2023-02-28T16:26:51;5.80;56.40
10233;DHT22;5161;48.174;11.756;2023-02-28T16:29:29;5.70;56.40
10233;DHT22;5161;48.174;11.756;2023-02-28T16:31:56;5.70;56.40
10233;DHT22;5161;48.174;11.756;2023-02-28T16:34:24;5.60;56.20
10233;DHT22;5161;48.174;11.756;2023-02-28T16:36:51;5.50;56.30
10233;DHT22;5161;48.174;11.756;2023-02-28T16:39:17;5.50;56.50
10233;DHT22;5161;48.174;11.756;2023-02-28T16:41:44;5.50;56.50
10233;DHT22;5161;48.174;11.756;2023-02-28T16:44:35;5.50;56.60
10233;DHT22;5161;48.174;11.756;2023-02-28T16:47:02;5.40;56.50
10233;DHT22;5161;48.174;11.756;2023-02-28T16:49:28;5.40;56.60
10233;DHT22;5161;48.174;11.756;2023-02-28T16:51:53;5.30;56.60
10233;DHT22;5161;48.174;11.756;2023-02-28T16:54:19;5.20;56.50
10233;DHT22;5161;48.174;11.756;2023-02-28T16:56:46;5.20;56.70
10233;DHT22;5161;48.174;11.756;2023-02-28T16:59:13;5.20;56.80
10233;DHT22;5161;48.174;11.756;2023-02-28T17:01:40;5.10;56.70
10233;DHT22;5161;48.174;11.756;2023-02-28T17:04:05;5.10;56.80
10233;DHT22;5161;48.174;11.756;2023-02-28T17:06:31;5.00;56.80
10233;DHT22;5161;48.174;11.756;2023-02-28T17:08:58;5.00;56.80
10233;DHT22;5161;48.174;11.756;2023-02-28T17:11:24;5.00;57.00
10233;DHT22;5161;48.174;11.756;2023-02-28T17:13:50;4.90;57.00
10233;DHT22;5161;48.174;11.756;2023-02-28T17:16:36;4.90;57.10
10233;DHT22;5161;48.174;11.756;2023-02-28T17:19:06;4.80;57.10
10233;DHT22;5161;48.174;11.756;2023-02-28T17:21:34;4.80;57.10
10233;DHT22;5161;48.174;11.756;2023-02-28T17:24:00;4.70;57.20
10233;DHT22;5161;48.174;11.756;2023-02-28T17:26:26;4.70;57.20
10233;DHT22;5161;48.174;11.756;2023-02-28T17:28:54;4.70;57.40
10233;DHT22;5161;48.174;11.756;2023-02-28T17:31:26;4.60;57.40
10233;DHT22;5161;48.174;11.756;2023-02-28T17:33:54;4.60;57.30
10233;DHT22;5161;48.174;11.756;2023-02-28T17:36:25;4.60;57.30
10233;DHT22;5161;48.174;11.756;2023-02-28T17:38:54;4.60;57.50
10233;DHT22;5161;48.174;11.756;2023-02-28T17:41:26;4.60;57.60
10233;DHT22;5161;48.174;11.756;2023-02-28T17:43:52;4.60;57.60
10233;DHT22;5161;48.174;11.756;2023-02-28T17:46:21;4.50;57.70
10233;DHT22;5161;48.174;11.756;2023-02-28T17:48:51;4.50;57.90
10233;DHT22;5161;48.174;11.756;2023-02-28T17:51:18;4.50;57.90
10233;DHT22;5161;48.174;11.756;2023-02-28T17:53:44;4.60;58.10